Accueil
METAR-TAF:

METAR-TAF

Aéroports :

Gaya, Inde

latitude: 24-44-40N, longitude: 84-57-04E, altitude: 116 m

Observation

Le bulletin a été fait il y a 14 minutes, à 08:00 UTC
Vent 4 kt de est/nord-est
Température 24°C
Humidité 47%
Pression 1019 hPa
Visibilité: 2400 m
brume sèche

METAR: VEGY 060800Z 06004KT 2400 HZ NSC 24/12 Q1019 NOSIG

Heure: 13:44 (08:14 UTC)

Prévision

Le bulletin a été fait il y a 3 heures et 14 minutes, à 05:00 UTC
Prévision valable du 06 à 06 UTC au 06 à 15 UTC
Vent 3 kt de direction variable
Visibilité: 1500 m
Nuages épars à une hauteur de 10000 ft
fumée, brume
Evoluant progressivement
du 06 à 09 UTC au 06 à 11 UTC
Visibilité: 3000 m
brume sèche
Evoluant progressivement
du 06 à 13 UTC au 06 à 14 UTC
Vent kt de nord
Visibilité: 1500 m
brume, brume sèche

TAF: VEGY 060500Z 0606/0615 VRB03KT 1500 FU BR SCT100 BECMG 0609/0611 3000 HZ BECMG 0613/0614 00000KT 1500 BR HZ NSC

Observations et prévisions météorologiques de plus de 4000 aéroports (messages METAR et TAF).

Les stations disponibles sont représentées par des disques jaunes et rouges sur la carte.

Passer la souris dessus pour voir le nom de la station.

Cliquer dessus pour voir les observations et prévisions météorologiques.

Pour changer de carte: cliquez sur les boutons verts avec une croix noire pour zoomer, sur le bouton vert avec un tiret pour effectuer un zoom arrière, ou sur les flèches vertes pour les cartes adjacentes.


METAR-TAF: